createdAt,value
2019-06-26T00:00:25.675Z,19.42
2019-06-26T00:02:53.015Z,19.27
2019-06-26T00:05:20.335Z,19.52
2019-06-26T00:07:47.679Z,19.92
2019-06-26T00:10:15.101Z,22.52
2019-06-26T00:12:42.442Z,21.77
2019-06-26T00:15:09.757Z,22.25
2019-06-26T00:17:37.068Z,21.55
2019-06-26T00:20:04.947Z,22.05
2019-06-26T00:22:32.314Z,23.42
2019-06-26T00:24:59.671Z,22.35
2019-06-26T00:27:26.996Z,21.48
2019-06-26T00:29:54.335Z,21.95
2019-06-26T00:32:21.659Z,22.87
2019-06-26T00:34:49.086Z,22.10
2019-06-26T00:37:16.397Z,20.30
2019-06-26T00:39:43.730Z,22.80
2019-06-26T00:42:11.073Z,22.80
2019-06-26T00:44:38.418Z,22.05
2019-06-26T00:47:05.751Z,25.25
2019-06-26T00:49:33.111Z,24.43
2019-06-26T00:52:00.413Z,24.52
2019-06-26T00:54:27.757Z,24.80
2019-06-26T00:56:55.071Z,22.27
2019-06-26T00:59:22.411Z,23.40
2019-06-26T01:01:49.815Z,22.70
2019-06-26T01:04:21.487Z,23.90
2019-06-26T01:06:48.812Z,21.17
2019-06-26T01:09:16.153Z,21.52
2019-06-26T01:11:43.529Z,22.37
2019-06-26T01:14:10.844Z,22.60
2019-06-26T01:16:38.187Z,21.93
2019-06-26T01:19:05.511Z,23.55
2019-06-26T01:21:32.917Z,21.00
2019-06-26T01:24:00.216Z,21.90
2019-06-26T01:26:27.581Z,20.85
2019-06-26T01:28:54.971Z,22.00
2019-06-26T01:31:22.377Z,22.10
2019-06-26T01:33:49.705Z,22.80
2019-06-26T01:36:17.059Z,22.77
2019-06-26T01:38:44.382Z,22.75
2019-06-26T01:41:11.738Z,22.93
2019-06-26T01:43:39.047Z,23.65
2019-06-26T01:46:06.389Z,23.98
2019-06-26T01:48:33.767Z,22.95
2019-06-26T01:51:01.111Z,22.22
2019-06-26T01:53:28.474Z,22.73
2019-06-26T01:55:55.832Z,23.18
2019-06-26T01:58:23.157Z,23.85
2019-06-26T02:00:50.499Z,23.77
2019-06-26T02:03:17.969Z,24.12
2019-06-26T02:05:45.289Z,22.80
2019-06-26T02:08:12.609Z,22.17
2019-06-26T02:10:39.994Z,23.05
2019-06-26T02:13:07.298Z,22.87
2019-06-26T02:15:34.642Z,22.95
2019-06-26T02:18:01.958Z,23.52
2019-06-26T02:20:29.295Z,23.20
2019-06-26T02:22:56.609Z,22.22
2019-06-26T02:25:24.025Z,23.70
2019-06-26T02:27:51.362Z,23.20
2019-06-26T02:30:18.705Z,22.55
2019-06-26T02:32:46.028Z,22.95
2019-06-26T02:35:13.355Z,22.98
2019-06-26T02:37:40.706Z,23.07
2019-06-26T02:40:08.024Z,23.40
2019-06-26T02:42:35.408Z,24.20
2019-06-26T02:45:02.771Z,23.05
2019-06-26T02:47:30.099Z,23.05
2019-06-26T02:49:57.418Z,22.27
2019-06-26T02:52:24.754Z,22.75
2019-06-26T02:54:52.153Z,22.30
2019-06-26T02:57:19.463Z,21.82
2019-06-26T02:59:46.776Z,23.27
2019-06-26T03:02:14.186Z,22.80
2019-06-26T03:04:41.518Z,23.10
2019-06-26T03:07:08.832Z,22.85
2019-06-26T03:09:36.213Z,22.58
2019-06-26T03:12:03.560Z,22.58
2019-06-26T03:14:30.893Z,23.57
2019-06-26T03:16:58.266Z,23.47
2019-06-26T03:19:25.600Z,21.85
2019-06-26T03:21:52.948Z,22.65
2019-06-26T03:24:20.281Z,21.60
2019-06-26T03:26:47.630Z,22.30
2019-06-26T03:29:14.983Z,22.50
2019-06-26T03:31:42.326Z,23.25
2019-06-26T03:34:09.650Z,22.15
2019-06-26T03:36:37.032Z,22.87
2019-06-26T03:39:05.895Z,22.73
2019-06-26T03:41:33.213Z,21.40
2019-06-26T03:44:00.543Z,23.00
2019-06-26T03:46:27.931Z,23.55
2019-06-26T03:48:55.320Z,22.32
2019-06-26T03:51:22.659Z,22.50
2019-06-26T03:53:50.122Z,22.98
2019-06-26T03:56:17.518Z,21.40
2019-06-26T03:58:45.072Z,21.87
2019-06-26T04:01:12.418Z,21.97
2019-06-26T04:03:39.770Z,22.25
2019-06-26T04:06:07.113Z,23.00
2019-06-26T04:08:34.425Z,23.62
2019-06-26T04:11:01.772Z,22.32
2019-06-26T04:13:29.098Z,24.72
2019-06-26T04:15:56.445Z,22.32
2019-06-26T04:18:23.790Z,21.85
2019-06-26T04:20:51.131Z,24.35
2019-06-26T04:23:18.526Z,22.37
2019-06-26T04:25:45.880Z,22.95
2019-06-26T04:28:13.223Z,21.82
2019-06-26T04:30:40.556Z,21.70
2019-06-26T04:33:07.906Z,21.30
2019-06-26T04:35:35.212Z,22.75
2019-06-26T04:38:02.563Z,20.95
2019-06-26T04:40:29.894Z,21.15
2019-06-26T04:42:57.229Z,20.52
2019-06-26T04:45:24.554Z,18.87
2019-06-26T04:47:51.908Z,19.12
2019-06-26T04:50:19.240Z,18.98
2019-06-26T04:52:46.592Z,17.73
2019-06-26T04:55:13.994Z,17.90
2019-06-26T04:57:41.289Z,17.57
2019-06-26T05:00:08.598Z,17.62
2019-06-26T05:02:35.934Z,16.20
2019-06-26T05:05:04.822Z,17.05
2019-06-26T05:07:32.157Z,16.85
2019-06-26T05:09:59.478Z,15.25
2019-06-26T05:12:26.810Z,15.70
2019-06-26T05:14:54.126Z,15.85
2019-06-26T05:17:21.454Z,15.58
2019-06-26T05:19:48.894Z,14.60
2019-06-26T05:22:16.250Z,14.23
2019-06-26T05:24:46.309Z,14.68
2019-06-26T05:27:12.505Z,14.55
2019-06-26T05:29:39.853Z,15.43
2019-06-26T05:32:07.195Z,16.55
2019-06-26T05:34:34.578Z,18.75
2019-06-26T05:37:01.925Z,16.73
2019-06-26T05:39:29.291Z,18.37
2019-06-26T05:41:56.624Z,21.87
2019-06-26T05:44:23.952Z,15.85
2019-06-26T05:46:51.410Z,13.43
2019-06-26T05:49:18.668Z,14.03
2019-06-26T05:51:50.565Z,12.73
2019-06-26T05:54:17.872Z,14.05
2019-06-26T05:56:45.571Z,14.68
2019-06-26T05:59:12.919Z,14.75
2019-06-26T06:01:40.213Z,14.85
2019-06-26T06:04:07.545Z,13.95
2019-06-26T06:06:41.558Z,15.85
2019-06-26T06:09:04.996Z,21.10
2019-06-26T06:11:32.292Z,19.98
2019-06-26T06:13:59.685Z,14.10
2019-06-26T06:16:26.990Z,13.85
2019-06-26T06:18:54.332Z,17.70
2019-06-26T06:21:21.672Z,13.85
2019-06-26T06:23:49.000Z,13.10
2019-06-26T06:26:16.316Z,12.35
2019-06-26T06:28:43.657Z,12.75
2019-06-26T06:31:10.989Z,12.18
2019-06-26T06:33:38.329Z,11.20
2019-06-26T06:36:09.441Z,11.18
2019-06-26T06:38:34.660Z,11.75
2019-06-26T06:41:01.992Z,11.22
2019-06-26T06:43:29.331Z,10.38
2019-06-26T06:45:56.631Z,9.90
2019-06-26T06:48:24.020Z,10.68
2019-06-26T06:50:51.335Z,10.15
2019-06-26T06:53:18.661Z,9.90
2019-06-26T06:55:45.964Z,9.43
2019-06-26T06:58:13.294Z,9.73
2019-06-26T07:00:40.594Z,9.00
2019-06-26T07:03:07.926Z,10.25
2019-06-26T07:05:35.232Z,10.48
2019-06-26T07:08:02.609Z,9.25
2019-06-26T07:10:29.966Z,8.83
2019-06-26T07:12:57.314Z,9.50
2019-06-26T07:15:24.691Z,9.28
2019-06-26T07:17:52.384Z,9.40
2019-06-26T07:20:19.695Z,9.85
2019-06-26T07:22:47.030Z,10.20
2019-06-26T07:25:14.369Z,10.55
2019-06-26T07:27:41.672Z,10.23
2019-06-26T07:30:08.981Z,11.18
2019-06-26T07:32:36.317Z,10.43
2019-06-26T07:35:04.507Z,9.80
2019-06-26T07:37:31.816Z,10.32
2019-06-26T07:40:02.082Z,10.43
2019-06-26T07:42:28.147Z,9.00
2019-06-26T07:44:55.478Z,10.85
2019-06-26T07:47:28.219Z,10.63
2019-06-26T07:49:51.844Z,10.03
2019-06-26T07:52:19.152Z,9.83
2019-06-26T07:54:46.483Z,9.88
2019-06-26T07:57:13.788Z,10.68
2019-06-26T07:59:41.120Z,9.25
2019-06-26T08:02:08.446Z,9.75
2019-06-26T08:04:35.776Z,9.18
2019-06-26T08:07:03.190Z,10.20
2019-06-26T08:09:30.552Z,9.60
2019-06-26T08:11:57.863Z,10.50
2019-06-26T08:14:25.198Z,9.15
2019-06-26T08:16:52.513Z,9.88
2019-06-26T08:19:19.844Z,9.45
2019-06-26T08:21:47.232Z,9.13
2019-06-26T08:24:14.564Z,9.25
2019-06-26T08:26:41.872Z,8.78
2019-06-26T08:29:09.196Z,8.65
2019-06-26T08:31:36.500Z,9.05
2019-06-26T08:34:03.844Z,8.75
2019-06-26T08:36:31.155Z,8.05
2019-06-26T08:38:58.498Z,6.85
2019-06-26T08:41:25.802Z,9.50
2019-06-26T08:43:53.136Z,9.23
2019-06-26T08:46:20.442Z,8.55
2019-06-26T08:48:51.592Z,8.50
2019-06-26T08:51:16.814Z,9.85
2019-06-26T08:53:44.128Z,9.48
2019-06-26T08:56:11.448Z,9.18
2019-06-26T08:58:38.786Z,8.63
2019-06-26T09:01:06.134Z,9.13
2019-06-26T09:03:33.453Z,7.95
2019-06-26T09:06:00.766Z,8.50
2019-06-26T09:08:28.259Z,9.10
2019-06-26T09:10:55.612Z,8.18
2019-06-26T09:13:23.010Z,8.83
2019-06-26T09:15:50.363Z,8.58
2019-06-26T09:18:31.134Z,9.45
2019-06-26T09:20:46.622Z,8.88
2019-06-26T09:23:13.924Z,8.70
2019-06-26T09:25:41.434Z,8.90
2019-06-26T09:28:08.740Z,8.68
2019-06-26T09:30:36.058Z,8.90
2019-06-26T09:33:03.412Z,9.83
2019-06-26T09:35:30.745Z,7.72
2019-06-26T09:37:58.093Z,9.40
2019-06-26T09:40:25.437Z,9.50
2019-06-26T09:42:52.742Z,8.88
2019-06-26T09:45:20.079Z,7.35
2019-06-26T09:47:47.393Z,8.95
2019-06-26T09:50:15.481Z,9.35
2019-06-26T09:52:42.790Z,8.93
2019-06-26T09:55:10.137Z,9.18
2019-06-26T09:57:37.416Z,9.75
2019-06-26T10:00:06.377Z,8.33
2019-06-26T10:02:33.718Z,8.40
2019-06-26T10:05:01.028Z,8.98
2019-06-26T10:07:28.352Z,8.83
2019-06-26T10:09:55.929Z,8.83
2019-06-26T10:12:23.165Z,9.25
2019-06-26T10:14:50.526Z,8.70
2019-06-26T10:17:17.830Z,8.93
2019-06-26T10:19:45.163Z,8.55
2019-06-26T10:22:12.491Z,7.47
2019-06-26T10:24:39.812Z,9.20
2019-06-26T10:27:07.136Z,8.68
2019-06-26T10:29:34.464Z,8.38
2019-06-26T10:32:01.805Z,8.28
2019-06-26T10:34:29.123Z,8.55
2019-06-26T10:36:56.477Z,8.73
2019-06-26T10:39:23.814Z,8.98
2019-06-26T10:41:54.771Z,8.65
2019-06-26T10:44:20.114Z,6.92
2019-06-26T10:46:47.436Z,8.53
2019-06-26T10:49:26.481Z,7.72
2019-06-26T10:51:43.752Z,6.95
2019-06-26T10:54:11.105Z,6.20
2019-06-26T10:56:38.461Z,6.72
2019-06-26T10:59:05.764Z,6.33
2019-06-26T11:01:33.091Z,6.30
2019-06-26T11:04:00.401Z,5.45
2019-06-26T11:06:27.726Z,5.47
2019-06-26T11:08:55.049Z,5.45
2019-06-26T11:11:22.370Z,5.25
2019-06-26T11:13:49.671Z,4.70
2019-06-26T11:16:16.998Z,4.65
2019-06-26T11:18:44.300Z,5.87
2019-06-26T11:21:11.676Z,4.70
2019-06-26T11:23:38.987Z,4.80
2019-06-26T11:26:06.326Z,4.17
2019-06-26T11:28:33.608Z,3.90
2019-06-26T11:31:00.926Z,3.27
2019-06-26T11:33:29.785Z,4.15
2019-06-26T11:35:57.112Z,4.67
2019-06-26T11:38:24.428Z,4.00
2019-06-26T11:40:51.754Z,4.53
2019-06-26T11:43:19.135Z,3.87
2019-06-26T11:45:46.524Z,4.72
2019-06-26T11:48:13.850Z,4.67
2019-06-26T11:50:41.174Z,4.55
2019-06-26T11:53:08.468Z,4.28
2019-06-26T11:55:35.809Z,4.53
2019-06-26T11:58:03.088Z,4.97
2019-06-26T12:00:30.924Z,4.20
2019-06-26T12:02:58.193Z,4.85
2019-06-26T12:05:25.498Z,4.87
2019-06-26T12:07:52.835Z,4.87
2019-06-26T12:10:20.152Z,4.12
2019-06-26T12:12:47.541Z,3.70
2019-06-26T12:15:16.505Z,3.90
2019-06-26T12:17:43.857Z,3.25
2019-06-26T12:20:18.548Z,3.72
2019-06-26T12:22:40.162Z,4.30
2019-06-26T12:25:07.531Z,4.15
2019-06-26T12:27:34.855Z,3.70
2019-06-26T12:30:02.165Z,4.42
2019-06-26T12:32:29.476Z,4.40
2019-06-26T12:34:56.784Z,4.10
2019-06-26T12:37:37.115Z,4.05
2019-06-26T12:39:53.082Z,4.12
2019-06-26T12:42:20.383Z,4.30
2019-06-26T12:44:47.699Z,3.98
2019-06-26T12:47:15.060Z,3.90
2019-06-26T12:49:42.369Z,3.70
2019-06-26T12:52:09.699Z,4.17
2019-06-26T12:54:36.996Z,3.67
2019-06-26T12:57:04.313Z,3.72
2019-06-26T12:59:31.626Z,4.05
2019-06-26T13:01:58.941Z,4.12
2019-06-26T13:04:26.288Z,3.80
2019-06-26T13:06:53.584Z,4.33
2019-06-26T13:09:20.903Z,4.22
2019-06-26T13:11:48.241Z,4.83
2019-06-26T13:14:15.570Z,4.10
2019-06-26T13:16:42.885Z,4.50
2019-06-26T13:19:10.232Z,4.28
2019-06-26T13:21:37.551Z,4.78
2019-06-26T13:24:04.873Z,4.75
2019-06-26T13:26:32.185Z,3.80
2019-06-26T13:28:59.519Z,4.30
2019-06-26T13:31:26.817Z,3.08
2019-06-26T13:33:54.125Z,3.83
2019-06-26T13:36:21.478Z,3.60
2019-06-26T13:38:48.795Z,3.65
2019-06-26T13:41:16.126Z,3.40
2019-06-26T13:43:43.419Z,4.28
2019-06-26T13:46:10.759Z,3.72
2019-06-26T13:48:38.114Z,3.72
2019-06-26T13:51:09.917Z,3.40
2019-06-26T13:53:34.421Z,3.10
2019-06-26T13:56:01.837Z,3.40
2019-06-26T13:58:29.155Z,2.92
2019-06-26T14:00:56.535Z,3.62
2019-06-26T14:03:23.841Z,3.65
2019-06-26T14:05:54.245Z,3.45
2019-06-26T14:08:21.549Z,3.60
2019-06-26T14:10:48.861Z,3.87
2019-06-26T14:13:16.161Z,3.62
2019-06-26T14:15:43.499Z,3.87
2019-06-26T14:18:10.810Z,4.20
2019-06-26T14:20:38.146Z,3.75
2019-06-26T14:23:05.461Z,3.85
2019-06-26T14:25:32.802Z,3.47
2019-06-26T14:28:00.119Z,4.08
2019-06-26T14:30:28.068Z,3.47
2019-06-26T14:32:55.458Z,3.47
2019-06-26T14:35:22.811Z,3.40
2019-06-26T14:37:50.125Z,3.98
2019-06-26T14:40:17.466Z,4.35
2019-06-26T14:42:44.754Z,3.83
2019-06-26T14:45:12.080Z,3.85
2019-06-26T14:47:39.397Z,3.62
2019-06-26T14:50:06.942Z,4.22
2019-06-26T14:52:35.153Z,3.52
2019-06-26T14:55:02.597Z,3.60
2019-06-26T14:57:29.893Z,5.08
2019-06-26T14:59:57.209Z,4.20
2019-06-26T15:02:24.539Z,4.25
2019-06-26T15:04:51.935Z,3.92
2019-06-26T15:07:19.251Z,3.90
2019-06-26T15:09:46.572Z,4.05
2019-06-26T15:12:13.959Z,4.53
2019-06-26T15:14:41.262Z,4.25
2019-06-26T15:17:08.604Z,4.42
2019-06-26T15:19:35.991Z,3.98
2019-06-26T15:22:03.310Z,3.45
2019-06-26T15:24:30.639Z,3.90
2019-06-26T15:26:57.973Z,3.90
2019-06-26T15:29:25.311Z,3.85
2019-06-26T15:31:52.631Z,4.58
2019-06-26T15:34:19.940Z,4.85
2019-06-26T15:36:47.261Z,4.55
2019-06-26T15:39:14.581Z,5.05
2019-06-26T15:41:41.944Z,4.70
2019-06-26T15:44:09.370Z,5.35
2019-06-26T15:46:36.681Z,5.03
2019-06-26T15:49:03.965Z,5.05
2019-06-26T15:51:31.303Z,5.25
2019-06-26T15:54:00.065Z,5.05
2019-06-26T15:56:27.736Z,5.05
2019-06-26T15:58:55.055Z,5.70
2019-06-26T16:01:28.089Z,4.87
2019-06-26T16:03:55.405Z,5.20
2019-06-26T16:06:22.737Z,5.35
2019-06-26T16:08:50.029Z,4.10
2019-06-26T16:11:17.344Z,5.22
2019-06-26T16:13:44.665Z,4.97
2019-06-26T16:16:12.056Z,5.47
2019-06-26T16:18:43.108Z,5.28
2019-06-26T16:21:10.260Z,5.30
2019-06-26T16:23:37.570Z,5.25
2019-06-26T16:26:04.966Z,5.10
2019-06-26T16:28:32.333Z,5.08
2019-06-26T16:30:59.659Z,5.47
2019-06-26T16:33:27.042Z,4.87
2019-06-26T16:35:54.359Z,5.75
2019-06-26T16:38:21.700Z,5.67
2019-06-26T16:40:49.012Z,5.08
2019-06-26T16:43:16.363Z,5.50
2019-06-26T16:45:43.670Z,5.97
2019-06-26T16:48:10.995Z,5.97
2019-06-26T16:50:38.329Z,5.72
2019-06-26T16:53:05.649Z,6.03
2019-06-26T16:55:33.043Z,5.92
2019-06-26T16:58:00.366Z,6.22
2019-06-26T17:00:27.668Z,5.50
2019-06-26T17:02:54.999Z,5.42
2019-06-26T17:05:22.304Z,5.67
2019-06-26T17:07:49.629Z,6.28
2019-06-26T17:10:16.949Z,5.70
2019-06-26T17:12:44.287Z,5.65
2019-06-26T17:15:11.594Z,5.72
2019-06-26T17:17:39.049Z,6.10
2019-06-26T17:20:06.701Z,6.15
2019-06-26T17:22:34.337Z,5.90
2019-06-26T17:25:01.664Z,5.50
2019-06-26T17:27:29.095Z,6.05
2019-06-26T17:29:56.496Z,6.10
2019-06-26T17:32:23.825Z,6.15
2019-06-26T17:34:51.457Z,6.30
2019-06-26T17:37:19.034Z,6.30
2019-06-26T17:39:46.631Z,7.00
2019-06-26T17:42:13.967Z,6.33
2019-06-26T17:44:41.325Z,5.95
2019-06-26T17:47:08.677Z,7.33
2019-06-26T17:49:36.029Z,6.50
2019-06-26T17:52:03.406Z,6.80
2019-06-26T17:54:30.720Z,7.05
2019-06-26T17:56:58.048Z,6.60
2019-06-26T17:59:25.345Z,6.97
2019-06-26T18:01:52.740Z,6.85
2019-06-26T18:04:20.058Z,7.08
2019-06-26T18:06:47.392Z,7.03
2019-06-26T18:09:14.726Z,7.47
2019-06-26T18:11:42.134Z,7.33
2019-06-26T18:14:09.518Z,6.75
2019-06-26T18:16:36.826Z,6.70
2019-06-26T18:19:04.148Z,7.53
2019-06-26T18:21:31.549Z,7.25
2019-06-26T18:23:58.931Z,7.28
2019-06-26T18:26:26.251Z,7.03
2019-06-26T18:28:53.569Z,7.37
2019-06-26T18:31:20.881Z,7.17
2019-06-26T18:33:48.207Z,7.53
2019-06-26T18:36:15.602Z,7.55
2019-06-26T18:38:43.040Z,7.53
2019-06-26T18:41:10.332Z,7.78
2019-06-26T18:43:37.810Z,7.17
2019-06-26T18:46:05.123Z,7.65
2019-06-26T18:48:32.477Z,7.80
2019-06-26T18:50:59.931Z,7.42
2019-06-26T18:53:27.456Z,7.20
2019-06-26T18:55:54.770Z,8.08
2019-06-26T18:58:22.096Z,8.18
2019-06-26T19:00:49.520Z,7.87
2019-06-26T19:03:17.212Z,8.90
2019-06-26T19:05:44.560Z,7.60
2019-06-26T19:08:11.907Z,7.80
2019-06-26T19:10:39.255Z,7.95
2019-06-26T19:13:06.583Z,7.30
2019-06-26T19:15:34.013Z,8.05
2019-06-26T19:18:01.433Z,8.35
2019-06-26T19:20:28.733Z,8.08
2019-06-26T19:22:56.238Z,7.70
2019-06-26T19:25:23.556Z,8.40
2019-06-26T19:27:50.948Z,8.23
2019-06-26T19:30:18.955Z,8.38
2019-06-26T19:32:46.470Z,8.53
2019-06-26T19:35:21.100Z,7.75
2019-06-26T19:37:42.929Z,7.78
2019-06-26T19:40:10.248Z,7.33
2019-06-26T19:42:37.862Z,7.35
2019-06-26T19:45:06.416Z,7.60
2019-06-26T19:47:33.697Z,7.92
2019-06-26T19:50:01.030Z,8.08
2019-06-26T19:52:31.916Z,7.83
2019-06-26T19:54:57.485Z,7.67
2019-06-26T19:57:24.872Z,7.70
2019-06-26T19:59:52.198Z,7.72
2019-06-26T20:02:19.673Z,7.70
2019-06-26T20:04:48.424Z,8.50
2019-06-26T20:07:15.951Z,7.33
2019-06-26T20:09:43.465Z,7.90
2019-06-26T20:12:10.785Z,6.85
2019-06-26T20:14:38.111Z,7.17
2019-06-26T20:17:05.512Z,7.40
2019-06-26T20:19:32.842Z,7.87
2019-06-26T20:22:01.107Z,8.08
2019-06-26T20:24:42.997Z,8.30
2019-06-26T20:26:57.376Z,7.08
2019-06-26T20:29:24.687Z,7.28
2019-06-26T20:31:52.013Z,7.00
2019-06-26T20:34:19.321Z,7.42
2019-06-26T20:36:46.638Z,7.17
2019-06-26T20:39:13.960Z,7.65
2019-06-26T20:41:41.296Z,6.78
2019-06-26T20:44:08.585Z,6.75
2019-06-26T20:46:35.972Z,7.17
2019-06-26T20:49:03.348Z,7.62
2019-06-26T20:51:30.684Z,7.03
2019-06-26T20:53:58.003Z,7.08
2019-06-26T20:56:25.931Z,6.70
2019-06-26T20:58:53.264Z,7.15
2019-06-26T21:01:20.582Z,6.95
2019-06-26T21:03:47.872Z,6.70
2019-06-26T21:06:15.198Z,7.15
2019-06-26T21:08:42.505Z,6.72
2019-06-26T21:11:09.813Z,6.78
2019-06-26T21:13:37.145Z,6.03
2019-06-26T21:16:04.466Z,6.90
2019-06-26T21:18:31.773Z,7.60
2019-06-26T21:20:59.196Z,6.55
2019-06-26T21:23:26.504Z,5.90
2019-06-26T21:25:53.840Z,6.80
2019-06-26T21:28:21.176Z,6.83
2019-06-26T21:30:48.552Z,7.00
2019-06-26T21:33:15.871Z,7.40
2019-06-26T21:35:43.171Z,6.70
2019-06-26T21:38:10.554Z,7.12
2019-06-26T21:40:37.904Z,6.83
2019-06-26T21:43:05.550Z,7.08
2019-06-26T21:45:32.882Z,7.03
2019-06-26T21:48:00.252Z,7.80
2019-06-26T21:50:29.068Z,7.28
2019-06-26T21:52:56.705Z,7.53
2019-06-26T21:55:33.920Z,7.40
2019-06-26T21:57:52.968Z,7.10
2019-06-26T22:00:20.555Z,7.42
2019-06-26T22:02:47.872Z,7.75
2019-06-26T22:05:15.540Z,6.80
2019-06-26T22:07:42.852Z,7.78
2019-06-26T22:10:10.166Z,7.22
2019-06-26T22:12:37.476Z,7.15
2019-06-26T22:15:05.173Z,7.10
2019-06-26T22:17:32.503Z,7.22
2019-06-26T22:19:59.806Z,8.15
2019-06-26T22:22:27.127Z,8.40
2019-06-26T22:24:54.415Z,8.35
2019-06-26T22:27:21.742Z,8.40
2019-06-26T22:29:49.057Z,8.63
2019-06-26T22:32:16.368Z,8.10
2019-06-26T22:34:43.682Z,7.92
2019-06-26T22:37:10.998Z,7.42
2019-06-26T22:39:38.292Z,8.43
2019-06-26T22:42:05.626Z,7.78
2019-06-26T22:44:32.920Z,7.72
2019-06-26T22:47:00.262Z,7.67
2019-06-26T22:49:27.558Z,7.67
2019-06-26T22:51:54.931Z,8.33
2019-06-26T22:54:22.202Z,8.08
2019-06-26T22:56:49.616Z,7.47
2019-06-26T22:59:17.015Z,8.45
2019-06-26T23:01:44.354Z,8.08
2019-06-26T23:04:11.636Z,7.85
2019-06-26T23:06:38.997Z,8.05
2019-06-26T23:09:06.766Z,7.83
2019-06-26T23:11:34.296Z,8.25
2019-06-26T23:14:01.560Z,7.87
2019-06-26T23:16:28.858Z,7.85
2019-06-26T23:18:56.180Z,8.25
2019-06-26T23:21:23.486Z,8.75
2019-06-26T23:23:50.806Z,7.60
2019-06-26T23:26:24.158Z,8.13
2019-06-26T23:28:47.068Z,8.00
2019-06-26T23:31:14.372Z,7.90
2019-06-26T23:33:41.700Z,8.08
2019-06-26T23:36:09.009Z,8.48
2019-06-26T23:38:36.331Z,7.92
2019-06-26T23:41:03.625Z,7.85
2019-06-26T23:43:30.978Z,7.10
2019-06-26T23:45:58.354Z,7.33
2019-06-26T23:48:25.722Z,7.47
2019-06-26T23:50:53.036Z,8.05
2019-06-26T23:53:20.364Z,7.45
2019-06-26T23:55:47.666Z,7.65
2019-06-26T23:58:14.992Z,7.03
